createdAt,value
2018-11-04T00:00:20.548Z,34.43
2018-11-04T00:05:50.557Z,37.70
2018-11-04T00:11:19.837Z,34.03
2018-11-04T00:16:49.207Z,31.77
2018-11-04T00:22:18.576Z,32.33
2018-11-04T00:27:47.826Z,34.55
2018-11-04T00:33:17.404Z,37.23
2018-11-04T00:38:46.668Z,38.28
2018-11-04T00:44:15.973Z,34.60
2018-11-04T00:49:45.411Z,38.13
2018-11-04T00:55:15.114Z,30.23
2018-11-04T01:00:44.383Z,31.57
2018-11-04T01:06:13.667Z,40.15
2018-11-04T01:11:42.921Z,31.87
2018-11-04T01:17:12.240Z,31.37
2018-11-04T01:22:42.567Z,35.13
2018-11-04T01:28:11.832Z,38.80
2018-11-04T01:33:41.427Z,34.20
2018-11-04T01:39:11.115Z,33.10
2018-11-04T01:44:40.376Z,34.20
2018-11-04T01:50:13.304Z,32.33
2018-11-04T01:55:42.591Z,35.35
2018-11-04T02:01:11.849Z,31.62
2018-11-04T02:06:41.102Z,33.92
2018-11-04T02:12:10.342Z,37.48
2018-11-04T02:17:40.595Z,37.30
2018-11-04T02:23:09.835Z,36.45
2018-11-04T02:28:40.265Z,33.25
2018-11-04T02:34:09.538Z,29.52
2018-11-04T02:39:39.823Z,33.00
2018-11-04T02:45:09.494Z,31.33
2018-11-04T02:50:38.793Z,31.27
2018-11-04T02:56:08.064Z,31.80
2018-11-04T03:01:37.482Z,30.70
2018-11-04T03:07:06.800Z,33.63
2018-11-04T03:12:36.176Z,32.50
2018-11-04T03:18:05.384Z,35.85
2018-11-04T03:23:34.692Z,34.25
2018-11-04T03:29:03.952Z,33.90
2018-11-04T03:34:33.349Z,32.28
2018-11-04T03:40:02.709Z,34.25
2018-11-04T03:45:32.971Z,34.43
2018-11-04T03:51:02.189Z,40.15
2018-11-04T03:56:31.498Z,35.28
2018-11-04T04:02:00.705Z,36.25
2018-11-04T04:07:31.531Z,32.73
2018-11-04T04:13:01.553Z,43.58
2018-11-04T04:18:30.841Z,30.48
2018-11-04T04:24:00.129Z,29.82
2018-11-04T04:29:29.351Z,35.28
2018-11-04T04:34:58.707Z,34.00
2018-11-04T04:40:27.988Z,32.95
2018-11-04T04:45:57.403Z,35.28
2018-11-04T04:51:26.637Z,33.60
2018-11-04T04:56:55.998Z,32.50
2018-11-04T05:02:25.387Z,38.67
2018-11-04T05:07:55.716Z,36.45
2018-11-04T05:13:24.941Z,35.63
2018-11-04T05:18:54.324Z,34.38
2018-11-04T05:24:23.607Z,31.73
2018-11-04T05:29:52.896Z,35.85
2018-11-04T05:35:22.169Z,33.85
2018-11-04T05:40:51.411Z,40.78
2018-11-04T05:46:21.696Z,35.90
2018-11-04T05:51:50.931Z,32.65
2018-11-04T05:57:20.208Z,36.75
2018-11-04T06:02:49.457Z,34.30
2018-11-04T06:08:18.804Z,36.20
2018-11-04T06:13:48.096Z,29.92
2018-11-04T06:19:17.547Z,34.45
2018-11-04T06:24:46.840Z,31.97
2018-11-04T06:30:16.132Z,33.65
2018-11-04T06:35:45.406Z,33.53
2018-11-04T06:41:14.741Z,33.58
2018-11-04T06:46:44.012Z,34.10
2018-11-04T06:52:13.309Z,40.12
2018-11-04T06:57:42.529Z,33.28
2018-11-04T07:03:11.737Z,27.75
2018-11-04T07:08:41.088Z,31.10
2018-11-04T07:14:10.436Z,33.90
2018-11-04T07:19:39.757Z,32.53
2018-11-04T07:25:09.065Z,30.37
2018-11-04T07:30:38.347Z,32.03
2018-11-04T07:36:07.717Z,34.15
2018-11-04T07:41:37.040Z,34.48
2018-11-04T07:47:06.461Z,35.28
2018-11-04T07:52:35.704Z,34.00
2018-11-04T07:58:05.065Z,31.33
2018-11-04T08:03:34.582Z,34.08
2018-11-04T08:09:04.833Z,27.10
2018-11-04T08:14:34.217Z,26.42
2018-11-04T08:20:03.737Z,26.85
2018-11-04T08:25:32.984Z,26.17
2018-11-04T08:31:02.271Z,27.37
2018-11-04T08:36:31.556Z,30.95
2018-11-04T08:42:00.787Z,28.45
2018-11-04T08:47:30.056Z,31.73
2018-11-04T08:52:59.435Z,29.85
2018-11-04T08:58:28.728Z,34.95
2018-11-04T09:03:57.984Z,29.70
2018-11-04T09:09:27.258Z,32.03
2018-11-04T09:14:58.476Z,32.80
2018-11-04T09:20:27.735Z,31.33
2018-11-04T09:25:57.249Z,28.73
2018-11-04T09:31:26.661Z,27.30
2018-11-04T09:36:55.993Z,30.25
2018-11-04T09:42:25.562Z,31.20
2018-11-04T09:47:57.294Z,28.07
2018-11-04T09:53:26.817Z,32.13
2018-11-04T09:58:56.187Z,29.12
2018-11-04T10:04:26.619Z,32.42
2018-11-04T10:09:55.899Z,34.30
2018-11-04T10:15:25.272Z,26.87
2018-11-04T10:20:55.091Z,22.80
2018-11-04T10:26:24.169Z,26.77
2018-11-04T10:31:53.580Z,25.70
2018-11-04T10:37:23.029Z,27.35
2018-11-04T10:42:52.200Z,28.70
2018-11-04T10:48:21.569Z,32.58
2018-11-04T10:53:50.929Z,30.43
2018-11-04T10:59:20.372Z,27.13
2018-11-04T11:04:49.657Z,28.55
2018-11-04T11:10:20.871Z,31.65
2018-11-04T11:15:50.196Z,41.75
2018-11-04T11:21:19.472Z,38.90
2018-11-04T11:26:48.972Z,27.42
2018-11-04T11:32:18.619Z,24.37
2018-11-04T11:37:48.025Z,26.42
2018-11-04T11:43:17.319Z,26.07
2018-11-04T11:48:46.749Z,26.70
2018-11-04T11:54:17.044Z,24.60
2018-11-04T11:59:46.537Z,23.67
2018-11-04T12:05:15.978Z,27.52
2018-11-04T12:10:45.444Z,25.97
2018-11-04T12:16:14.830Z,28.32
2018-11-04T12:21:44.291Z,26.02
2018-11-04T12:27:15.142Z,27.13
2018-11-04T12:32:45.547Z,28.87
2018-11-04T12:38:15.092Z,25.12
2018-11-04T12:43:44.556Z,23.95
2018-11-04T12:49:13.937Z,26.37
2018-11-04T12:54:44.091Z,24.95
2018-11-04T13:00:14.719Z,23.40
2018-11-04T13:05:44.198Z,24.50
2018-11-04T13:11:13.547Z,24.10
2018-11-04T13:16:42.848Z,28.15
2018-11-04T13:22:12.188Z,21.75
2018-11-04T13:27:41.611Z,25.52
2018-11-04T13:33:11.119Z,20.10
2018-11-04T13:38:40.377Z,22.22
2018-11-04T13:44:09.785Z,23.62
2018-11-04T13:49:40.070Z,22.37
2018-11-04T13:55:09.544Z,20.15
2018-11-04T14:00:40.296Z,20.92
2018-11-04T14:06:09.875Z,21.33
2018-11-04T14:11:39.271Z,23.77
2018-11-04T14:17:08.628Z,21.80
2018-11-04T14:22:38.058Z,19.92
2018-11-04T14:28:07.548Z,19.95
2018-11-04T14:33:36.893Z,27.87
2018-11-04T14:39:08.573Z,22.98
2018-11-04T14:44:37.932Z,28.62
2018-11-04T14:50:12.980Z,29.65
2018-11-04T14:55:42.365Z,29.15
2018-11-04T15:01:11.949Z,21.82
2018-11-04T15:06:41.215Z,25.75
2018-11-04T15:12:10.697Z,23.12
2018-11-04T15:17:40.599Z,25.55
2018-11-04T15:23:11.145Z,24.18
2018-11-04T15:28:40.581Z,28.15
2018-11-04T15:34:10.118Z,25.05
2018-11-04T15:39:39.492Z,25.27
2018-11-04T15:45:10.525Z,22.75
2018-11-04T15:50:39.860Z,27.85
2018-11-04T15:56:09.136Z,27.05
2018-11-04T16:01:38.562Z,23.83
2018-11-04T16:07:07.923Z,26.90
2018-11-04T16:12:37.738Z,20.85
2018-11-04T16:18:07.255Z,21.60
2018-11-04T16:23:36.752Z,24.57
2018-11-04T16:29:06.476Z,22.40
2018-11-04T16:34:36.401Z,21.20
2018-11-04T16:40:07.209Z,22.73
2018-11-04T16:45:36.545Z,39.70
2018-11-04T16:51:06.895Z,48.52
2018-11-04T16:56:36.512Z,50.40
2018-11-04T17:02:06.584Z,40.45
2018-11-04T17:07:36.006Z,21.25
2018-11-04T17:13:05.949Z,22.32
2018-11-04T17:18:35.581Z,20.27
2018-11-04T17:24:05.330Z,22.67
2018-11-04T17:29:34.911Z,18.70
2018-11-04T17:35:04.419Z,20.68
2018-11-04T17:40:33.684Z,19.07
2018-11-04T17:46:02.989Z,21.65
2018-11-04T17:51:32.420Z,22.42
2018-11-04T17:57:01.768Z,22.48
2018-11-04T18:02:31.111Z,19.35
2018-11-04T18:08:00.444Z,20.05
2018-11-04T18:13:29.819Z,21.37
2018-11-04T18:18:59.114Z,18.48
2018-11-04T18:24:28.544Z,25.52
2018-11-04T18:29:57.856Z,18.00
2018-11-04T18:35:27.314Z,19.02
2018-11-04T18:40:56.592Z,19.85
2018-11-04T18:46:25.818Z,19.32
2018-11-04T18:51:55.136Z,21.75
2018-11-04T18:57:24.534Z,22.77
2018-11-04T19:02:53.975Z,23.80
2018-11-04T19:08:23.339Z,28.35
2018-11-04T19:13:52.808Z,24.92
2018-11-04T19:19:22.187Z,20.95
2018-11-04T19:24:51.550Z,19.87
2018-11-04T19:30:22.890Z,20.60
2018-11-04T19:35:52.183Z,24.90
2018-11-04T19:41:21.498Z,20.20
2018-11-04T19:46:50.839Z,21.35
2018-11-04T19:52:20.247Z,19.67
2018-11-04T19:57:51.006Z,22.93
2018-11-04T20:03:20.592Z,22.60
2018-11-04T20:08:55.159Z,23.98
2018-11-04T20:14:24.995Z,21.77
2018-11-04T20:19:59.824Z,23.95
2018-11-04T20:25:34.167Z,21.35
2018-11-04T20:31:03.619Z,22.05
2018-11-04T20:36:33.048Z,24.40
2018-11-04T20:42:02.403Z,22.00
2018-11-04T20:47:38.240Z,20.85
2018-11-04T20:53:07.643Z,22.35
2018-11-04T20:58:37.035Z,25.62
2018-11-04T21:04:08.024Z,21.33
2018-11-04T21:09:37.438Z,23.67
2018-11-04T21:15:07.405Z,21.07
2018-11-04T21:20:36.724Z,22.65
2018-11-04T21:26:06.219Z,21.80
2018-11-04T21:31:35.582Z,17.27
2018-11-04T21:37:06.111Z,20.75
2018-11-04T21:42:35.525Z,22.30
2018-11-04T21:48:04.836Z,20.82
2018-11-04T21:53:34.345Z,23.90
2018-11-04T21:59:03.685Z,19.52
2018-11-04T22:04:33.061Z,23.25
2018-11-04T22:10:02.351Z,20.77
2018-11-04T22:15:32.724Z,19.92
2018-11-04T22:21:02.447Z,22.95
2018-11-04T22:26:31.860Z,20.27
2018-11-04T22:32:01.265Z,19.27
2018-11-04T22:37:30.678Z,17.42
2018-11-04T22:42:59.912Z,19.42
2018-11-04T22:48:29.245Z,19.10
2018-11-04T22:53:58.619Z,21.05
2018-11-04T22:59:27.959Z,26.00
2018-11-04T23:05:02.485Z,17.85
2018-11-04T23:10:31.786Z,20.32
2018-11-04T23:16:01.077Z,19.82
2018-11-04T23:21:30.360Z,20.40
2018-11-04T23:26:59.775Z,20.57
2018-11-04T23:32:28.999Z,19.45
2018-11-04T23:37:58.214Z,15.83
2018-11-04T23:43:27.460Z,27.30
2018-11-04T23:48:56.747Z,23.20
2018-11-04T23:54:25.968Z,21.95
2018-11-04T23:59:55.215Z,22.07
